Time;durP1;ratioP1;P1;durP2;ratioP2;P2;SDS_P1;SDS_P2;PMS_P1;PMS_P2;Temp;Humidity;BMP_temperature;BMP_pressure;BME280_temperature;BME280_humidity;BME280_pressure;Samples;Min_cycle;Max_cycle;Signal;HPM_P1;HPM_P2
2023/04/01 00:01:43;;;;;;;6.97;1.85;;;8.60;99.90;;;;;;5073077;28;20548;-75
2023/04/01 00:04:09;;;;;;;7.82;2.28;;;8.70;99.90;;;;;;5083464;28;20642;-75
2023/04/01 00:06:35;;;;;;;5.82;1.95;;;8.70;99.90;;;;;;5069363;28;20942;-75
2023/04/01 00:09:02;;;;;;;8.73;2.20;;;8.70;99.90;;;;;;5099944;27;20483;-75
2023/04/01 00:11:28;;;;;;;9.38;2.15;;;8.70;99.90;;;;;;5083418;28;20485;-75
2023/04/01 00:13:56;;;;;;;6.53;2.03;;;8.70;99.90;;;;;;5071097;28;20412;-75
2023/04/01 00:16:23;;;;;;;7.20;2.20;;;8.70;99.90;;;;;;5057844;28;20502;-75
2023/04/01 00:18:51;;;;;;;5.77;2.13;;;8.70;99.90;;;;;;5068616;28;20414;-75
2023/04/01 00:21:18;;;;;;;8.23;2.13;;;8.70;99.90;;;;;;5091713;27;20779;-75
2023/04/01 00:23:45;;;;;;;9.10;2.30;;;8.70;99.90;;;;;;5075453;28;20422;-75
2023/04/01 00:26:12;;;;;;;6.70;2.15;;;8.80;99.90;;;;;;5071056;28;20410;-75
2023/04/01 00:28:38;;;;;;;5.78;2.00;;;8.80;99.90;;;;;;5070925;28;20411;-75
2023/04/01 00:31:10;;;;;;;6.68;2.30;;;8.80;99.90;;;;;;5076112;28;20410;-75
2023/04/01 00:33:36;;;;;;;8.35;2.45;;;8.90;99.90;;;;;;5070547;28;20418;-75
2023/04/01 00:36:12;;;;;;;11.20;2.15;;;8.90;99.90;;;;;;5074060;28;20416;-75
2023/04/01 00:38:39;;;;;;;6.95;2.10;;;9.00;99.90;;;;;;5076577;28;20836;-75
2023/04/01 00:41:13;;;;;;;7.22;2.10;;;9.10;99.90;;;;;;5066743;28;20522;-75
2023/04/01 00:43:41;;;;;;;8.30;2.33;;;9.10;99.90;;;;;;5057077;28;20415;-75
2023/04/01 00:46:09;;;;;;;8.27;2.30;;;9.10;99.90;;;;;;5071215;28;20423;-75
2023/04/01 00:48:44;;;;;;;7.90;2.33;;;9.10;99.90;;;;;;5074217;28;20409;-74
2023/04/01 00:51:21;;;;;;;9.63;2.40;;;9.10;99.90;;;;;;5070966;28;20418;-75
2023/04/01 00:53:55;;;;;;;8.55;2.30;;;9.20;99.90;;;;;;5070862;28;20414;-75
2023/04/01 00:56:38;;;;;;;9.07;2.30;;;9.20;99.90;;;;;;5084738;28;20418;-75
2023/04/01 00:59:29;;;;;;;8.00;2.30;;;9.20;99.90;;;;;;5053046;28;20412;-76
2023/04/01 01:01:55;;;;;;;8.43;2.45;;;9.10;99.90;;;;;;5070642;28;20422;-76
2023/04/01 01:04:34;;;;;;;6.85;2.10;;;9.10;99.90;;;;;;5090867;28;20413;-76
2023/04/01 01:07:31;;;;;;;8.23;2.50;;;9.00;99.90;;;;;;5056851;28;20917;-76
2023/04/01 01:10:26;;;;;;;6.82;2.20;;;9.10;99.90;;;;;;5075233;28;20419;-76
2023/04/01 01:13:07;;;;;;;10.18;2.50;;;9.00;99.90;;;;;;5074238;28;20906;-76
2023/04/01 01:16:15;;;;;;;9.02;2.42;;;9.00;99.90;;;;;;5071436;28;20471;-76
2023/04/01 01:18:57;;;;;;;6.97;2.20;;;9.00;99.90;;;;;;5068505;28;20443;-75
2023/04/01 01:21:53;;;;;;;9.30;2.30;;;9.00;99.90;;;;;;5068814;28;20449;-75
2023/04/01 01:24:48;;;;;;;7.93;2.38;;;9.00;99.90;;;;;;5069926;28;20497;-75
2023/04/01 01:27:19;;;;;;;8.90;2.33;;;9.10;99.90;;;;;;5068204;28;20416;-76
2023/04/01 01:30:20;;;;;;;6.50;1.98;;;9.20;99.90;;;;;;5070196;28;20491;-76
2023/04/01 01:32:52;;;;;;;8.90;2.25;;;9.20;99.90;;;;;;5058895;28;20510;-75
2023/04/01 01:35:53;;;;;;;6.90;2.63;;;9.30;99.90;;;;;;5090670;28;20418;-76
2023/04/01 01:38:24;;;;;;;6.70;2.28;;;9.30;99.90;;;;;;5074130;28;20417;-75
2023/04/01 01:40:54;;;;;;;8.15;1.90;;;9.40;99.90;;;;;;5079084;28;21024;-75
2023/04/01 01:43:38;;;;;;;7.20;2.10;;;9.40;99.90;;;;;;5075721;28;20409;-75
2023/04/01 01:46:19;;;;;;;5.68;2.00;;;9.40;99.90;;;;;;5055788;28;20414;-75
2023/04/01 01:48:48;;;;;;;6.88;2.15;;;9.30;99.90;;;;;;5104470;27;20454;-74
2023/04/01 01:51:15;;;;;;;6.68;2.20;;;9.30;99.90;;;;;;5103199;28;20990;-75
2023/04/01 01:53:42;;;;;;;6.60;2.10;;;9.30;99.90;;;;;;5105534;28;20925;-74
2023/04/01 01:56:12;;;;;;;7.10;2.15;;;9.30;99.90;;;;;;5074017;28;20414;-74
2023/04/01 01:59:08;;;;;;;8.33;2.20;;;9.30;99.90;;;;;;5077036;28;20414;-74
2023/04/01 02:01:41;;;;;;;9.37;2.30;;;9.20;99.90;;;;;;5083988;28;20418;-74
2023/04/01 02:04:10;;;;;;;7.20;2.17;;;9.30;99.90;;;;;;5078428;28;21073;-75
2023/04/01 02:06:48;;;;;;;7.20;2.03;;;9.20;99.90;;;;;;5074336;28;20480;-76
2023/04/01 02:09:15;;;;;;;6.22;2.03;;;9.20;99.90;;;;;;5072262;28;20425;-75
2023/04/01 02:11:50;;;;;;;7.97;2.10;;;9.20;99.90;;;;;;5078819;28;20418;-75
2023/04/01 02:14:29;;;;;;;6.60;2.20;;;9.10;99.90;;;;;;5076915;28;20423;-75
2023/04/01 02:17:26;;;;;;;9.00;2.03;;;9.10;99.90;;;;;;5074346;28;20500;-75
2023/04/01 02:20:01;;;;;;;5.93;1.90;;;9.10;99.90;;;;;;5068608;28;20764;-75
2023/04/01 02:22:33;;;;;;;7.50;2.05;;;9.10;99.90;;;;;;5070095;28;20453;-75
2023/04/01 02:25:12;;;;;;;4.90;1.90;;;9.10;99.90;;;;;;5073215;28;20452;-75
2023/04/01 02:27:42;;;;;;;6.97;2.33;;;9.10;99.90;;;;;;5075596;28;20416;-76
2023/04/01 02:30:10;;;;;;;8.05;2.13;;;9.00;99.90;;;;;;5075828;28;20429;-75
2023/04/01 02:32:39;;;;;;;7.82;1.92;;;9.00;99.90;;;;;;5078071;28;20792;-75
2023/04/01 02:35:10;;;;;;;7.63;2.10;;;9.10;99.90;;;;;;5078087;28;20451;-75
2023/04/01 02:37:38;;;;;;;7.07;1.90;;;9.10;99.90;;;;;;5103175;28;20414;-75
2023/04/01 02:40:08;;;;;;;5.40;2.00;;;9.10;99.90;;;;;;5075395;28;20785;-75
2023/04/01 02:42:34;;;;;;;10.30;2.42;;;9.00;99.90;;;;;;5094299;28;20407;-75
2023/04/01 02:45:01;;;;;;;5.82;2.10;;;9.00;99.90;;;;;;5059455;28;21115;-75
2023/04/01 02:47:30;;;;;;;6.53;1.95;;;9.00;99.90;;;;;;5077135;28;20407;-75
2023/04/01 02:50:00;;;;;;;6.93;2.00;;;9.00;99.90;;;;;;5072736;28;20739;-75
2023/04/01 02:52:29;;;;;;;6.72;2.00;;;9.00;99.90;;;;;;5059690;28;20415;-75
2023/04/01 02:54:56;;;;;;;7.70;2.08;;;9.00;99.90;;;;;;5079154;28;20448;-75
2023/04/01 02:57:22;;;;;;;6.25;1.88;;;9.00;99.90;;;;;;5072793;28;20411;-75
2023/04/01 02:59:49;;;;;;;6.75;2.05;;;8.90;99.90;;;;;;5070905;28;20422;-75
2023/04/01 03:02:16;;;;;;;5.97;1.70;;;9.00;99.90;;;;;;5072454;28;20510;-75
2023/04/01 03:04:43;;;;;;;7.20;2.05;;;9.00;99.90;;;;;;5082331;28;20437;-75
2023/04/01 03:07:10;;;;;;;7.10;2.20;;;9.00;99.90;;;;;;5055505;28;20415;-75
2023/04/01 03:09:38;;;;;;;9.35;2.20;;;9.00;99.90;;;;;;5076172;28;20933;-75
2023/04/01 03:12:05;;;;;;;7.70;1.98;;;9.00;99.90;;;;;;5082546;28;20413;-75
2023/04/01 03:14:32;;;;;;;7.25;2.22;;;9.00;99.90;;;;;;5077578;28;20422;-75
2023/04/01 03:16:58;;;;;;;7.53;2.17;;;9.00;99.90;;;;;;5074983;28;20446;-75
2023/04/01 03:19:24;;;;;;;7.97;2.03;;;8.90;99.90;;;;;;5071932;28;20411;-75
2023/04/01 03:21:51;;;;;;;6.00;1.85;;;9.00;99.90;;;;;;5073995;28;20438;-75
2023/04/01 03:24:17;;;;;;;5.97;1.88;;;9.00;99.90;;;;;;5104900;27;20411;-75
2023/04/01 03:26:43;;;;;;;6.30;1.90;;;9.00;99.90;;;;;;5078791;28;20578;-75
2023/04/01 03:29:09;;;;;;;6.07;1.80;;;9.00;99.90;;;;;;5077234;28;20541;-75
2023/04/01 03:31:35;;;;;;;6.07;2.00;;;9.00;99.90;;;;;;5081229;28;20448;-75
2023/04/01 03:34:02;;;;;;;6.57;2.00;;;9.00;99.90;;;;;;5072286;28;20463;-75
2023/04/01 03:36:28;;;;;;;6.00;2.03;;;9.00;99.90;;;;;;5075625;28;20423;-76
2023/04/01 03:38:54;;;;;;;7.55;2.10;;;9.00;99.90;;;;;;5075207;28;20435;-76
2023/04/01 03:41:20;;;;;;;7.47;2.20;;;9.00;99.90;;;;;;5073032;28;20957;-76
2023/04/01 03:43:47;;;;;;;8.15;2.13;;;9.00;99.90;;;;;;5076401;28;20471;-75
2023/04/01 03:46:20;;;;;;;10.88;2.17;;;9.00;99.90;;;;;;5070840;28;20416;-76
2023/04/01 03:48:48;;;;;;;7.70;2.00;;;9.00;99.90;;;;;;5080770;28;20935;-75
2023/04/01 03:51:16;;;;;;;7.20;2.00;;;9.00;99.90;;;;;;5067973;28;21596;-75
2023/04/01 03:53:42;;;;;;;5.22;1.92;;;9.10;99.90;;;;;;5070520;28;20411;-75
2023/04/01 03:56:09;;;;;;;6.75;1.95;;;9.10;99.90;;;;;;5071004;28;20425;-75
2023/04/01 03:58:37;;;;;;;6.93;2.10;;;9.10;99.90;;;;;;5077767;28;21177;-75
2023/04/01 04:01:17;;;;;;;7.32;2.10;;;9.10;99.90;;;;;;5070722;28;20419;-75
2023/04/01 04:03:43;;;;;;;6.72;2.08;;;9.10;99.90;;;;;;5068653;28;20567;-75
2023/04/01 04:06:21;;;;;;;7.78;2.25;;;9.20;99.90;;;;;;5068438;28;20806;-75
2023/04/01 04:08:47;;;;;;;6.38;2.00;;;9.20;99.90;;;;;;5068510;28;20460;-75
2023/04/01 04:11:14;;;;;;;12.63;2.50;;;9.20;99.90;;;;;;5090116;28;20453;-75
2023/04/01 04:13:41;;;;;;;7.70;2.20;;;9.30;99.90;;;;;;5076391;28;20414;-75
2023/04/01 04:16:08;;;;;;;8.13;2.22;;;9.40;99.90;;;;;;5073926;28;20411;-75
2023/04/01 04:18:35;;;;;;;8.48;2.15;;;9.50;99.90;;;;;;5079800;28;20962;-75
2023/04/01 04:21:01;;;;;;;8.45;2.55;;;9.60;99.90;;;;;;5078834;28;20446;-75
2023/04/01 04:23:30;;;;;;;8.20;2.00;;;9.70;99.90;;;;;;5065988;28;20407;-75
2023/04/01 04:26:06;;;;;;;7.25;2.13;;;9.80;99.90;;;;;;5073664;28;20414;-75
2023/04/01 04:28:36;;;;;;;11.63;2.35;;;9.80;99.90;;;;;;5070591;28;20986;-75
2023/04/01 04:31:05;;;;;;;8.00;2.42;;;9.90;99.90;;;;;;5073315;28;20401;-76
2023/04/01 04:33:31;;;;;;;8.35;2.28;;;10.00;99.90;;;;;;5083605;28;20408;-76
2023/04/01 04:35:59;;;;;;;14.85;2.58;;;10.10;99.90;;;;;;5087445;28;20506;-75
2023/04/01 04:38:27;;;;;;;10.70;2.63;;;10.20;99.90;;;;;;5075871;28;20415;-75
2023/04/01 04:40:55;;;;;;;11.20;2.40;;;10.20;99.90;;;;;;5059862;28;20410;-75
2023/04/01 04:43:22;;;;;;;9.23;2.23;;;10.20;99.90;;;;;;5090397;28;20422;-75
2023/04/01 04:45:49;;;;;;;8.30;2.33;;;10.20;99.90;;;;;;5072175;28;20397;-75
2023/04/01 04:48:18;;;;;;;13.50;2.75;;;10.20;99.90;;;;;;5072713;28;20422;-74
2023/04/01 04:50:50;;;;;;;7.32;2.45;;;10.20;99.90;;;;;;5076808;28;20538;-74
2023/04/01 04:53:19;;;;;;;10.43;2.45;;;10.20;99.90;;;;;;5068863;28;20425;-74
2023/04/01 04:55:50;;;;;;;10.85;2.33;;;10.30;99.90;;;;;;5073853;28;20421;-74
2023/04/01 04:58:17;;;;;;;8.80;2.47;;;10.30;99.90;;;;;;5065580;28;20458;-74
2023/04/01 05:00:44;;;;;;;8.77;2.10;;;10.30;99.90;;;;;;5069709;28;20470;-74
2023/04/01 05:03:12;;;;;;;10.82;2.40;;;10.30;99.90;;;;;;5079749;28;20837;-74
2023/04/01 05:05:39;;;;;;;10.82;2.40;;;10.30;99.90;;;;;;5074758;28;20853;-75
2023/04/01 05:08:06;;;;;;;9.10;2.03;;;10.30;99.90;;;;;;5077845;28;20503;-74
2023/04/01 05:10:33;;;;;;;10.68;2.35;;;10.30;99.90;;;;;;5053725;28;20465;-75
2023/04/01 05:12:59;;;;;;;7.97;2.25;;;10.30;99.90;;;;;;5081216;28;20413;-75
2023/04/01 05:15:25;;;;;;;8.98;2.35;;;10.40;99.90;;;;;;5076576;28;20588;-75
2023/04/01 05:17:52;;;;;;;12.95;3.10;;;10.40;99.90;;;;;;5069369;28;20413;-75
2023/04/01 05:20:18;;;;;;;14.20;2.92;;;10.60;99.90;;;;;;5066269;28;20957;-74
2023/04/01 05:22:44;;;;;;;9.98;2.65;;;10.70;99.90;;;;;;5053993;28;20406;-75
2023/04/01 05:25:11;;;;;;;11.32;2.47;;;10.70;99.90;;;;;;5076237;28;20772;-74
2023/04/01 05:27:37;;;;;;;11.27;2.73;;;10.80;99.90;;;;;;5069424;28;20411;-74
2023/04/01 05:30:04;;;;;;;9.90;2.65;;;10.80;99.90;;;;;;5066995;28;20753;-74
2023/04/01 05:32:31;;;;;;;11.20;2.70;;;10.90;99.90;;;;;;5078836;28;20426;-74
2023/04/01 05:34:58;;;;;;;10.10;2.78;;;10.90;99.90;;;;;;5073616;28;20892;-74
2023/04/01 05:37:24;;;;;;;13.73;2.80;;;10.90;99.90;;;;;;5073717;28;20413;-75
2023/04/01 05:39:50;;;;;;;9.48;2.45;;;10.90;99.90;;;;;;5075913;28;20422;-75
2023/04/01 05:42:16;;;;;;;10.77;2.80;;;10.90;99.90;;;;;;5075005;28;20536;-75
2023/04/01 05:44:42;;;;;;;9.93;2.60;;;11.00;99.90;;;;;;5078908;28;20401;-75
2023/04/01 05:47:09;;;;;;;12.88;2.90;;;11.00;99.90;;;;;;5105407;27;20405;-75
2023/04/01 05:49:35;;;;;;;14.07;3.10;;;11.10;99.90;;;;;;5076335;28;20424;-75
2023/04/01 05:52:01;;;;;;;15.65;2.88;;;11.10;99.90;;;;;;5071812;28;20949;-75
2023/04/01 05:54:27;;;;;;;11.32;2.72;;;11.20;99.90;;;;;;5075801;28;20852;-75
2023/04/01 05:56:54;;;;;;;11.82;2.60;;;11.30;99.90;;;;;;5071338;28;20496;-75
2023/04/01 05:59:20;;;;;;;19.25;3.42;;;11.30;99.90;;;;;;5068748;28;20442;-75
2023/04/01 06:01:46;;;;;;;13.60;3.20;;;11.50;99.90;;;;;;5077547;28;20451;-75
2023/04/01 06:04:18;;;;;;;15.13;3.10;;;11.70;99.90;;;;;;5077002;28;20506;-75
2023/04/01 06:06:44;;;;;;;9.40;2.80;;;11.70;99.90;;;;;;5076898;28;20766;-75
2023/04/01 06:09:18;;;;;;;14.07;3.00;;;11.80;99.90;;;;;;5053158;28;20528;-75
2023/04/01 06:11:53;;;;;;;15.70;3.22;;;11.90;99.90;;;;;;5065483;28;20433;-75
2023/04/01 06:15:06;;;;;;;15.55;3.05;;;12.00;99.90;;;;;;5075071;28;20449;-75
2023/04/01 06:18:02;;;;;;;15.50;3.22;;;12.00;99.90;;;;;;5066519;28;20417;-76
2023/04/01 06:20:59;;;;;;;12.57;2.77;;;12.10;99.90;;;;;;5070829;28;20543;-76
2023/04/01 06:23:43;;;;;;;11.50;2.92;;;12.10;99.90;;;;;;5076110;28;20434;-76
2023/04/01 06:26:19;;;;;;;15.17;3.13;;;12.10;99.90;;;;;;5089345;28;21159;-76
2023/04/01 06:28:51;;;;;;;10.67;3.00;;;12.10;99.90;;;;;;5065727;28;20823;-76
2023/04/01 06:31:58;;;;;;;16.33;3.38;;;12.20;99.90;;;;;;5107743;27;20414;-75
2023/04/01 06:35:05;;;;;;;16.30;3.10;;;12.30;99.90;;;;;;5079249;28;20415;-76
2023/04/01 06:37:38;;;;;;;15.95;3.20;;;12.40;99.90;;;;;;5073547;28;20784;-76
2023/04/01 06:40:55;;;;;;;12.25;2.85;;;12.50;99.90;;;;;;5073323;28;20415;-75
2023/04/01 06:44:05;;;;;;;13.98;3.10;;;12.70;99.90;;;;;;5075590;28;20407;-76
2023/04/01 06:46:54;;;;;;;20.58;3.35;;;12.90;99.90;;;;;;5079673;28;20503;-74
2023/04/01 06:50:01;;;;;;;13.23;3.13;;;12.90;99.90;;;;;;5073487;28;20502;-74
2023/04/01 06:52:41;;;;;;;18.42;3.13;;;13.00;99.90;;;;;;5079441;28;20936;-74
2023/04/01 06:55:40;;;;;;;16.88;3.17;;;13.00;99.90;;;;;;5085532;28;20455;-74
2023/04/01 06:58:35;;;;;;;9.32;2.35;;;12.90;99.90;;;;;;5077321;28;20479;-75
2023/04/01 07:01:10;;;;;;;9.80;2.80;;;12.90;99.90;;;;;;5063023;28;20509;-74
2023/04/01 07:03:56;;;;;;;12.75;3.00;;;12.90;99.90;;;;;;5082314;28;20892;-74
2023/04/01 07:07:01;;;;;;;12.65;2.50;;;13.00;99.90;;;;;;5075572;28;20403;-75
2023/04/01 07:09:43;;;;;;;9.45;2.42;;;13.10;99.90;;;;;;5049311;28;20408;-74
2023/04/01 07:12:30;;;;;;;13.05;3.08;;;13.10;99.90;;;;;;5074022;28;20874;-74
2023/04/01 07:15:06;;;;;;;11.75;2.70;;;13.20;99.90;;;;;;5076054;28;20409;-74
2023/04/01 07:17:38;;;;;;;9.40;2.63;;;13.50;99.90;;;;;;5076803;28;20410;-74
2023/04/01 07:20:11;;;;;;;13.43;2.80;;;13.50;99.90;;;;;;5075271;28;20987;-74
2023/04/01 07:22:52;;;;;;;12.27;2.50;;;13.20;99.90;;;;;;5107400;27;20404;-75
2023/04/01 07:25:44;;;;;;;11.88;2.50;;;13.00;99.90;;;;;;5092920;28;20451;-75
2023/04/01 07:28:19;;;;;;;13.73;2.97;;;13.00;99.90;;;;;;5075890;28;20435;-75
2023/04/01 07:30:57;;;;;;;13.52;2.97;;;13.20;99.90;;;;;;5066221;28;20482;-75
2023/04/01 07:33:52;;;;;;;9.63;2.92;;;13.30;99.90;;;;;;5087167;28;20411;-75
2023/04/01 07:36:20;;;;;;;10.45;2.63;;;13.40;99.90;;;;;;5078340;28;20466;-75
2023/04/01 07:39:15;;;;;;;12.38;2.80;;;13.50;99.90;;;;;;5076217;28;20409;-75
2023/04/01 07:41:54;;;;;;;9.18;2.50;;;13.40;99.90;;;;;;5084388;28;20445;-75
2023/04/01 07:44:59;;;;;;;13.18;2.83;;;13.30;99.90;;;;;;5093367;28;20454;-74
2023/04/01 07:48:01;;;;;;;13.43;2.55;;;13.90;99.90;;;;;;5101105;27;20411;-75
2023/04/01 07:51:00;;;;;;;11.00;2.50;;;13.90;99.90;;;;;;5086377;28;20416;-74
2023/04/01 07:54:03;;;;;;;10.60;2.50;;;13.80;99.90;;;;;;5079001;28;20402;-74
2023/04/01 07:57:14;;;;;;;13.05;3.00;;;13.60;99.90;;;;;;5078604;28;20475;-74
2023/04/01 07:59:52;;;;;;;16.35;2.90;;;13.40;99.90;;;;;;5091161;28;20415;-74
2023/04/01 08:03:00;;;;;;;13.85;2.90;;;13.50;99.90;;;;;;5078704;28;20427;-74
2023/04/01 08:05:46;;;;;;;15.88;3.40;;;14.00;99.90;;;;;;5079091;28;20398;-74
2023/04/01 08:08:59;;;;;;;12.32;2.63;;;14.40;99.90;;;;;;5076732;28;20435;-75
2023/04/01 08:11:39;;;;;;;13.23;3.08;;;14.60;99.90;;;;;;5102388;27;20888;-75
2023/04/01 08:14:54;;;;;;;10.30;2.55;;;14.80;99.90;;;;;;5075909;28;20425;-75
2023/04/01 08:17:44;;;;;;;15.95;2.95;;;14.40;99.90;;;;;;5072668;28;20802;-75
2023/04/01 08:20:28;;;;;;;12.23;2.83;;;14.10;99.90;;;;;;5058436;28;20829;-74
2023/04/01 08:23:28;;;;;;;12.48;2.88;;;13.80;99.90;;;;;;5110334;27;20421;-74
2023/04/01 08:26:15;;;;;;;11.82;2.97;;;13.70;99.90;;;;;;5080771;28;20413;-74
2023/04/01 08:29:13;;;;;;;11.27;2.65;;;13.90;99.90;;;;;;5101496;27;20391;-75
2023/04/01 08:32:03;;;;;;;14.98;2.85;;;14.00;99.90;;;;;;5072173;28;20406;-75
2023/04/01 08:34:41;;;;;;;15.52;3.20;;;14.10;99.90;;;;;;5078576;28;21005;-74
2023/04/01 08:37:34;;;;;;;11.18;3.28;;;14.20;99.90;;;;;;5078824;28;20435;-75
2023/04/01 08:40:26;;;;;;;12.75;3.20;;;14.30;99.90;;;;;;5072675;28;20430;-75
2023/04/01 08:43:35;;;;;;;13.18;2.63;;;14.40;99.90;;;;;;5070321;28;20830;-74
2023/04/01 08:47:08;;;;;;;12.43;3.03;;;14.70;99.90;;;;;;5067015;28;20411;-74
2023/04/01 08:50:21;;;;;;;11.38;2.70;;;14.40;99.90;;;;;;5064728;28;20858;-75
2023/04/01 08:53:57;;;;;;;10.98;2.95;;;14.30;99.90;;;;;;5073245;28;20411;-75
2023/04/01 08:56:29;;;;;;;13.57;3.22;;;14.20;99.90;;;;;;5061502;28;20419;-75
2023/04/01 08:59:20;;;;;;;12.48;2.97;;;14.50;99.90;;;;;;5066519;28;20425;-75
2023/04/01 09:02:22;;;;;;;14.77;3.15;;;14.50;99.90;;;;;;5074506;28;20422;-74
2023/04/01 09:05:23;;;;;;;14.40;3.10;;;14.30;99.90;;;;;;5053399;28;20506;-74
2023/04/01 09:08:14;;;;;;;9.57;2.53;;;14.10;99.90;;;;;;5077291;28;20471;-74
2023/04/01 09:11:07;;;;;;;12.27;2.87;;;14.00;99.90;;;;;;5072958;28;20489;-74
2023/04/01 09:13:59;;;;;;;11.40;2.70;;;13.90;99.90;;;;;;5073785;28;20504;-74
2023/04/01 09:16:44;;;;;;;11.23;2.80;;;14.00;99.90;;;;;;5074885;28;20410;-74
2023/04/01 09:19:40;;;;;;;12.02;2.90;;;14.20;99.90;;;;;;5075437;28;20412;-75
2023/04/01 09:22:46;;;;;;;10.85;2.70;;;14.50;99.90;;;;;;5068733;28;20423;-74
2023/04/01 09:25:59;;;;;;;10.40;3.10;;;15.00;99.90;;;;;;5072651;28;20403;-74
2023/04/01 09:28:57;;;;;;;11.23;2.90;;;14.70;99.90;;;;;;5064799;28;20802;-74
2023/04/01 09:32:10;;;;;;;14.30;3.10;;;14.50;99.90;;;;;;5073776;28;20452;-74
2023/04/01 09:35:06;;;;;;;11.40;2.70;;;14.50;99.90;;;;;;5071856;28;20464;-74
2023/04/01 09:38:29;;;;;;;10.95;2.90;;;14.80;99.90;;;;;;5072510;28;20410;-74
2023/04/01 09:41:15;;;;;;;10.50;2.53;;;15.00;99.90;;;;;;5002049;28;20520;-74
2023/04/01 09:44:13;;;;;;;13.77;3.05;;;15.40;99.90;;;;;;5070832;28;20423;-75
2023/04/01 09:47:29;;;;;;;9.43;2.63;;;16.10;99.90;;;;;;5069392;28;20423;-74
2023/04/01 09:50:27;;;;;;;12.48;2.58;;;16.60;99.90;;;;;;5052111;28;20396;-75
2023/04/01 09:53:51;;;;;;;12.77;2.43;;;16.70;99.90;;;;;;5070605;28;21021;-75
2023/04/01 09:57:09;;;;;;;11.93;3.05;;;16.70;99.90;;;;;;5070352;28;20408;-74
2023/04/01 10:00:36;;;;;;;10.93;3.15;;;17.60;99.90;;;;;;5070376;28;20415;-75
2023/04/01 10:03:37;;;;;;;11.00;2.67;;;19.40;99.90;;;;;;5051786;28;20841;-74
2023/04/01 10:06:47;;;;;;;10.67;2.70;;;20.40;99.90;;;;;;5073822;28;20406;-74
2023/04/01 10:09:55;;;;;;;10.82;2.88;;;18.60;99.90;;;;;;5077337;28;20521;-74
2023/04/01 10:12:44;;;;;;;10.32;2.50;;;17.20;99.90;;;;;;5069698;28;20883;-74
2023/04/01 10:15:32;;;;;;;12.02;2.78;;;16.80;99.90;;;;;;5070435;28;20400;-74
2023/04/01 10:18:37;;;;;;;9.52;2.30;;;16.50;99.90;;;;;;5103198;28;20414;-74
2023/04/01 10:21:42;;;;;;;6.73;2.27;;;16.30;99.90;;;;;;5105990;28;20492;-74
2023/04/01 10:24:51;;;;;;;9.20;2.40;;;16.70;99.90;;;;;;5072054;28;20505;-75
2023/04/01 10:28:04;;;;;;;8.80;2.30;;;18.00;99.90;;;;;;5072003;28;21186;-75
2023/04/01 10:31:10;;;;;;;7.95;2.38;;;17.80;99.90;;;;;;5065504;28;20854;-74
2023/04/01 10:34:24;;;;;;;6.97;1.98;;;18.50;99.90;;;;;;5072773;28;20490;-75
2023/04/01 10:36:58;;;;;;;8.15;2.42;;;18.20;99.90;;;;;;5077096;28;20436;-74
2023/04/01 10:39:55;;;;;;;11.93;2.43;;;17.80;99.90;;;;;;5091308;28;20504;-75
2023/04/01 10:43:28;;;;;;;9.52;2.65;;;17.50;99.90;;;;;;5067916;28;20414;-75
2023/04/01 10:46:41;;;;;;;15.90;2.60;;;17.20;99.90;;;;;;5075379;28;20528;-75
2023/04/01 10:49:58;;;;;;;11.10;2.55;;;17.20;99.90;;;;;;5073375;28;20416;-75
2023/04/01 10:53:10;;;;;;;9.73;2.30;;;17.40;99.90;;;;;;5065968;28;20467;-75
2023/04/01 10:56:23;;;;;;;8.20;2.42;;;17.60;99.90;;;;;;5058853;28;20426;-75
2023/04/01 10:59:11;;;;;;;9.40;2.38;;;17.50;99.90;;;;;;5084858;28;20414;-75
2023/04/01 11:01:51;;;;;;;13.15;2.75;;;17.30;99.90;;;;;;5077986;28;20425;-75
2023/04/01 11:04:57;;;;;;;10.05;2.22;;;16.90;99.90;;;;;;5073305;28;20431;-76
2023/04/01 11:07:30;;;;;;;11.50;2.55;;;16.80;99.90;;;;;;5073321;28;20441;-75
2023/04/01 11:10:46;;;;;;;12.15;2.55;;;16.70;99.90;;;;;;5060130;28;20522;-76
2023/04/01 11:13:49;;;;;;;10.65;2.92;;;16.50;99.90;;;;;;5057806;28;20407;-76
2023/04/01 11:17:08;;;;;;;11.00;2.63;;;16.30;99.90;;;;;;5056544;28;21093;-75
2023/04/01 11:20:05;;;;;;;8.93;2.60;;;16.00;99.90;;;;;;5075745;28;20792;-77
2023/04/01 11:23:10;;;;;;;11.32;2.70;;;15.90;99.90;;;;;;5080172;28;20406;-77
2023/04/01 11:25:48;;;;;;;13.77;3.25;;;15.80;99.90;;;;;;5073401;28;20437;-76
2023/04/01 11:28:43;;;;;;;12.73;2.95;;;16.00;99.90;;;;;;5070350;28;20923;-76
2023/04/01 11:32:06;;;;;;;13.35;2.80;;;15.80;99.90;;;;;;5074656;28;20417;-76
2023/04/01 11:34:48;;;;;;;9.30;2.47;;;15.70;99.90;;;;;;5073083;28;20419;-74
2023/04/01 11:38:17;;;;;;;10.02;2.50;;;15.70;99.90;;;;;;5056632;28;20515;-75
2023/04/01 11:41:03;;;;;;;8.35;2.45;;;15.70;99.90;;;;;;5049321;28;20506;-75
2023/04/01 11:44:10;;;;;;;12.48;2.80;;;15.60;99.90;;;;;;5074138;28;20736;-75
2023/04/01 11:47:12;;;;;;;10.37;2.50;;;15.50;99.90;;;;;;5068380;28;20446;-75
2023/04/01 11:50:38;;;;;;;11.20;2.70;;;15.50;99.90;;;;;;5051854;28;20486;-75
2023/04/01 11:53:21;;;;;;;13.20;3.10;;;15.40;99.90;;;;;;5064465;28;20416;-75
2023/04/01 11:56:25;;;;;;;12.20;2.65;;;15.70;99.90;;;;;;5059812;28;20772;-75
2023/04/01 11:59:31;;;;;;;10.75;2.53;;;15.70;99.90;;;;;;5078475;28;20899;-76
2023/04/01 12:02:22;;;;;;;8.77;2.40;;;15.70;99.90;;;;;;5103102;27;20421;-75
2023/04/01 12:05:22;;;;;;;11.77;2.65;;;15.60;99.90;;;;;;5078196;28;20811;-75
2023/04/01 12:07:57;;;;;;;11.63;2.60;;;15.40;99.90;;;;;;5089069;27;20452;-75
2023/04/01 12:10:41;;;;;;;9.57;2.60;;;15.30;99.90;;;;;;5070963;28;20434;-76
2023/04/01 12:13:45;;;;;;;11.90;2.50;;;15.20;99.90;;;;;;5078753;28;20786;-77
2023/04/01 12:16:37;;;;;;;11.73;2.70;;;15.20;99.90;;;;;;5089511;27;20439;-76
2023/04/01 12:19:44;;;;;;;12.05;2.33;;;15.30;99.90;;;;;;5070978;28;20512;-79
2023/04/01 12:25:19;;;;;;;7.67;2.13;;;15.00;99.90;;;;;;5094204;27;20731;-73
2023/04/01 12:27:57;;;;;;;8.73;2.00;;;14.80;99.90;;;;;;5044734;28;20186;-72
2023/04/01 12:30:52;;;;;;;14.20;2.40;;;14.80;99.90;;;;;;5039847;28;20344;-72
2023/04/01 12:33:58;;;;;;;14.50;2.90;;;14.60;99.90;;;;;;5092027;28;20193;-73
2023/04/01 12:36:45;;;;;;;18.53;2.30;;;14.50;99.90;;;;;;5094307;28;20190;-75
2023/04/01 12:39:58;;;;;;;19.77;4.93;;;14.50;99.90;;;;;;5091450;28;20216;-74
2023/04/01 12:42:57;;;;;;;11.07;4.57;;;14.50;99.90;;;;;;5091257;28;20206;-73
2023/04/01 12:45:35;;;;;;;9.60;3.50;;;14.60;99.90;;;;;;5094525;28;20188;-74
2023/04/01 12:48:52;;;;;;;11.50;2.27;;;15.00;99.90;;;;;;5091703;28;20194;-74
2023/04/01 12:51:58;;;;;;;9.50;2.27;;;15.30;99.90;;;;;;5049625;28;20195;-75
2023/04/01 12:55:09;;;;;;;9.03;2.20;;;15.20;99.90;;;;;;5092220;28;20244;-74
2023/04/01 12:58:17;;;;;;;8.23;1.93;;;15.00;99.90;;;;;;5062115;28;20243;-73
2023/04/01 13:01:04;;;;;;;7.80;2.23;;;14.80;99.90;;;;;;5095122;28;20190;-72
2023/04/01 13:03:49;;;;;;;7.87;1.90;;;14.80;99.90;;;;;;5121132;27;20312;-74
2023/04/01 13:06:24;;;;;;;13.07;1.93;;;14.80;99.90;;;;;;5095089;28;20223;-72
2023/04/01 13:09:21;;;;;;;13.77;2.53;;;14.70;99.90;;;;;;5101276;28;20601;-75
2023/04/01 13:12:17;;;;;;;11.80;2.13;;;14.60;99.90;;;;;;5098787;28;20193;-74
2023/04/01 13:15:08;;;;;;;8.60;1.77;;;14.70;99.90;;;;;;5089074;28;20236;-74
2023/04/01 13:17:53;;;;;;;7.03;1.97;;;14.60;99.90;;;;;;5087659;28;20194;-74
2023/04/01 13:21:15;;;;;;;9.87;1.80;;;14.60;99.90;;;;;;5092044;28;20242;-75
2023/04/01 13:23:58;;;;;;;11.37;2.27;;;14.60;99.90;;;;;;5091552;28;20229;-74
2023/04/01 13:26:46;;;;;;;8.27;1.67;;;14.40;99.90;;;;;;5075622;28;20376;-74
2023/04/01 13:29:43;;;;;;;13.53;2.33;;;14.40;99.90;;;;;;5089177;28;20201;-74
2023/04/01 13:33:04;;;;;;;8.07;2.00;;;14.60;99.90;;;;;;5077618;28;20193;-74
2023/04/01 13:36:12;;;;;;;10.87;2.07;;;14.50;99.90;;;;;;5058743;28;20313;-74
2023/04/01 13:39:09;;;;;;;15.23;2.40;;;14.50;99.90;;;;;;5078062;28;20281;-73
2023/04/01 13:42:28;;;;;;;9.20;1.80;;;14.70;99.90;;;;;;5073671;28;20187;-72
2023/04/01 13:45:10;;;;;;;8.63;2.10;;;15.00;99.90;;;;;;5075012;28;20247;-71
2023/04/01 13:47:55;;;;;;;11.77;1.97;;;15.10;99.90;;;;;;5078897;28;21007;-72
2023/04/01 13:50:35;;;;;;;9.87;2.07;;;15.10;99.90;;;;;;5081616;28;20202;-71
2023/04/01 13:53:38;;;;;;;6.30;2.03;;;15.20;99.90;;;;;;5075012;28;20205;-71
2023/04/01 13:56:28;;;;;;;8.18;2.10;;;15.60;99.90;;;;;;5074455;28;20453;-71
2023/04/01 13:59:31;;;;;;;9.15;2.28;;;15.50;99.90;;;;;;5082201;28;20498;-72
2023/04/01 14:02:25;;;;;;;10.25;2.20;;;15.40;99.90;;;;;;5078929;28;20417;-71
2023/04/01 14:04:57;;;;;;;9.27;2.45;;;15.20;99.90;;;;;;5078004;28;20990;-71
2023/04/01 14:07:57;;;;;;;10.15;2.20;;;15.20;99.90;;;;;;5103110;27;20431;-72
2023/04/01 14:10:57;;;;;;;9.43;2.30;;;14.80;99.90;;;;;;5075247;28;20472;-72
2023/04/01 14:14:19;;;;;;;8.38;2.22;;;14.60;99.90;;;;;;5076286;28;20443;-71
2023/04/01 14:17:15;;;;;;;13.82;2.80;;;14.50;99.90;;;;;;5039316;28;20481;-71
2023/04/01 14:20:30;;;;;;;9.90;2.70;;;15.10;99.90;;;;;;5079926;28;20462;-72